This is the latest recevied weather packets stored in our database for station/object N8QF. If no packets are shown the sender has not sent any weather packets the latest 10 day(s).
| Time | Temp. | Humidity | Pressure | Rain* | Wind** | Luminosity | Snow |
|---|---|---|---|---|---|---|---|
| 1777734885 | 9.44° C | 50% | 1017.7 hPa | 0 mm | - | - | - |
| 1777734585 | 9.44° C | 51% | 1017.7 hPa | 0 mm | - | - | - |
| 1777734285 | 8.89° C | 50% | 1017.7 hPa | 0 mm | - | - | - |
| 1777733985 | 8.89° C | 53% | 1017.7 hPa | 0 mm | - | - | - |
| 1777733684 | 8.89° C | 49% | 1017.6 hPa | 0 mm | - | - | - |
| 1777733384 | 8.89° C | 51% | 1017.6 hPa | 0 mm | - | - | - |
| 1777733084 | 8.89° C | 54% | 1017.6 hPa | 0 mm | - | - | - |
| 1777732781 | 8.89° C | 54% | 1017.6 hPa | 0 mm | - | - | - |
| 1777732480 | 8.89° C | 56% | 1017.6 hPa | 0 mm | - | - | - |
| 1777732179 | 8.89° C | 55% | 1017.6 hPa | 0 mm | - | - | - |
| 1777731879 | 8.89° C | 59% | 1017.6 hPa | 0 mm | - | - | - |
| 1777731579 | 8.33° C | 57% | 1017.5 hPa | 0 mm | - | - | - |
| 1777731279 | 7.78° C | 54% | 1017.6 hPa | 0 mm | - | - | - |
| 1777730978 | 8.33° C | 56% | 1017.5 hPa | 0 mm | - | - | - |
| 1777730678 | 8.33° C | 56% | 1017.5 hPa | 0 mm | - | - | - |
| 1777730378 | 8.33° C | 59% | 1017.4 hPa | 0 mm | - | - | - |
| 1777730078 | 7.22° C | 57% | 1017.5 hPa | 0 mm | - | - | - |
| 1777729778 | 7.78° C | 56% | 1017.5 hPa | 0 mm | - | - | - |
| 1777729477 | 7.78° C | 60% | 1017.5 hPa | 0 mm | - | - | - |
| 1777729176 | 7.22° C | 56% | 1017.5 hPa | 0 mm | - | - | - |
| 1777728876 | 7.22° C | 58% | 1017.6 hPa | 0 mm | - | - | - |
| 1777728578 | 6.67° C | 58% | 1017.6 hPa | 0 mm | - | - | - |
| 1777728276 | 7.22° C | 60% | 1017.6 hPa | 0 mm | - | - | - |
| 1777727975 | 6.67° C | 58% | 1017.6 hPa | 0 mm | - | - | - |
| 1777727675 | 6.67° C | 64% | 1017.5 hPa | 0 mm | - | - | - |
* Rain since midnight (hover to see other rain measurements)
** Current wind speed in m/s (hover to see current wind gust speed)